sensor_id;sensor_type;location;lat;lon;timestamp;P1;durP1;ratioP1;P2;durP2;ratioP2
55497;SDS011;41357;52.806;18.268;2022-10-16T00:00:46;42.55;;;22.73;;
55497;SDS011;41357;52.806;18.268;2022-10-16T00:03:12;40.97;;;20.98;;
55497;SDS011;41357;52.806;18.268;2022-10-16T00:05:40;43.85;;;21.30;;
55497;SDS011;41357;52.806;18.268;2022-10-16T00:08:06;35.65;;;20.75;;
55497;SDS011;41357;52.806;18.268;2022-10-16T00:10:33;38.00;;;20.92;;
55497;SDS011;41357;52.806;18.268;2022-10-16T00:12:59;40.28;;;21.00;;
55497;SDS011;41357;52.806;18.268;2022-10-16T00:15:25;40.60;;;22.40;;
55497;SDS011;41357;52.806;18.268;2022-10-16T00:17:51;35.08;;;20.10;;
55497;SDS011;41357;52.806;18.268;2022-10-16T00:20:17;38.72;;;20.50;;
55497;SDS011;41357;52.806;18.268;2022-10-16T00:22:44;37.33;;;20.38;;
55497;SDS011;41357;52.806;18.268;2022-10-16T00:25:10;39.45;;;20.17;;
55497;SDS011;41357;52.806;18.268;2022-10-16T00:27:36;39.25;;;20.35;;
55497;SDS011;41357;52.806;18.268;2022-10-16T00:30:02;42.15;;;20.83;;
55497;SDS011;41357;52.806;18.268;2022-10-16T00:32:28;33.08;;;18.40;;
55497;SDS011;41357;52.806;18.268;2022-10-16T00:34:55;38.92;;;20.75;;
55497;SDS011;41357;52.806;18.268;2022-10-16T00:37:21;37.10;;;20.15;;
55497;SDS011;41357;52.806;18.268;2022-10-16T00:39:47;41.78;;;21.98;;
55497;SDS011;41357;52.806;18.268;2022-10-16T00:42:17;43.55;;;21.45;;
55497;SDS011;41357;52.806;18.268;2022-10-16T00:44:53;42.53;;;22.80;;
55497;SDS011;41357;52.806;18.268;2022-10-16T00:47:29;49.85;;;25.95;;
55497;SDS011;41357;52.806;18.268;2022-10-16T00:52:41;43.05;;;23.50;;
55497;SDS011;41357;52.806;18.268;2022-10-16T00:55:09;40.22;;;22.02;;
55497;SDS011;41357;52.806;18.268;2022-10-16T00:57:35;46.25;;;25.58;;
55497;SDS011;41357;52.806;18.268;2022-10-16T01:00:03;48.78;;;27.13;;
55497;SDS011;41357;52.806;18.268;2022-10-16T01:02:30;50.63;;;27.10;;
55497;SDS011;41357;52.806;18.268;2022-10-16T01:04:56;51.67;;;25.98;;
55497;SDS011;41357;52.806;18.268;2022-10-16T01:18:00;54.15;;;29.45;;
55497;SDS011;41357;52.806;18.268;2022-10-16T01:20:41;48.72;;;25.77;;
55497;SDS011;41357;52.806;18.268;2022-10-16T01:25:59;43.83;;;24.20;;
55497;SDS011;41357;52.806;18.268;2022-10-16T01:28:38;47.58;;;26.25;;
55497;SDS011;41357;52.806;18.268;2022-10-16T01:31:06;43.80;;;25.15;;
55497;SDS011;41357;52.806;18.268;2022-10-16T01:33:35;43.22;;;23.25;;
55497;SDS011;41357;52.806;18.268;2022-10-16T01:36:09;55.00;;;27.98;;
55497;SDS011;41357;52.806;18.268;2022-10-16T01:38:37;47.13;;;24.52;;
55497;SDS011;41357;52.806;18.268;2022-10-16T01:41:06;50.28;;;27.35;;
55497;SDS011;41357;52.806;18.268;2022-10-16T01:43:36;49.60;;;26.50;;
55497;SDS011;41357;52.806;18.268;2022-10-16T01:46:03;49.83;;;26.63;;
55497;SDS011;41357;52.806;18.268;2022-10-16T01:48:30;47.17;;;25.45;;
55497;SDS011;41357;52.806;18.268;2022-10-16T01:51:01;45.88;;;26.42;;
55497;SDS011;41357;52.806;18.268;2022-10-16T01:53:28;39.17;;;21.23;;
55497;SDS011;41357;52.806;18.268;2022-10-16T01:55:55;41.97;;;22.40;;
55497;SDS011;41357;52.806;18.268;2022-10-16T01:58:21;44.50;;;22.33;;
55497;SDS011;41357;52.806;18.268;2022-10-16T02:00:48;39.88;;;21.85;;
55497;SDS011;41357;52.806;18.268;2022-10-16T02:03:15;37.95;;;21.13;;
55497;SDS011;41357;52.806;18.268;2022-10-16T02:05:44;42.70;;;21.83;;
55497;SDS011;41357;52.806;18.268;2022-10-16T02:08:10;42.63;;;23.45;;
55497;SDS011;41357;52.806;18.268;2022-10-16T02:10:37;44.00;;;24.77;;
55497;SDS011;41357;52.806;18.268;2022-10-16T02:13:09;51.42;;;25.92;;
55497;SDS011;41357;52.806;18.268;2022-10-16T02:15:36;45.63;;;25.38;;
55497;SDS011;41357;52.806;18.268;2022-10-16T02:18:06;58.35;;;30.25;;
55497;SDS011;41357;52.806;18.268;2022-10-16T02:20:34;56.75;;;31.38;;
55497;SDS011;41357;52.806;18.268;2022-10-16T02:23:02;49.17;;;28.63;;
55497;SDS011;41357;52.806;18.268;2022-10-16T02:25:34;49.35;;;28.25;;
55497;SDS011;41357;52.806;18.268;2022-10-16T02:28:16;46.05;;;24.73;;
55497;SDS011;41357;52.806;18.268;2022-10-16T02:30:50;40.85;;;23.00;;
55497;SDS011;41357;52.806;18.268;2022-10-16T02:33:17;40.03;;;22.60;;
55497;SDS011;41357;52.806;18.268;2022-10-16T02:35:45;53.00;;;27.95;;
55497;SDS011;41357;52.806;18.268;2022-10-16T02:38:12;50.00;;;28.13;;
55497;SDS011;41357;52.806;18.268;2022-10-16T02:40:39;47.22;;;27.90;;
55497;SDS011;41357;52.806;18.268;2022-10-16T02:43:06;47.20;;;27.05;;
55497;SDS011;41357;52.806;18.268;2022-10-16T02:45:32;50.50;;;27.70;;
55497;SDS011;41357;52.806;18.268;2022-10-16T02:47:58;38.58;;;24.67;;
55497;SDS011;41357;52.806;18.268;2022-10-16T02:50:25;48.72;;;28.48;;
55497;SDS011;41357;52.806;18.268;2022-10-16T02:52:51;41.83;;;24.67;;
55497;SDS011;41357;52.806;18.268;2022-10-16T02:55:17;40.85;;;24.85;;
55497;SDS011;41357;52.806;18.268;2022-10-16T02:57:43;44.20;;;24.67;;
55497;SDS011;41357;52.806;18.268;2022-10-16T03:00:11;40.90;;;23.88;;
55497;SDS011;41357;52.806;18.268;2022-10-16T03:02:38;44.88;;;23.92;;
55497;SDS011;41357;52.806;18.268;2022-10-16T03:05:04;41.88;;;24.80;;
55497;SDS011;41357;52.806;18.268;2022-10-16T03:07:30;37.72;;;22.42;;
55497;SDS011;41357;52.806;18.268;2022-10-16T03:09:56;44.65;;;24.58;;
55497;SDS011;41357;52.806;18.268;2022-10-16T03:12:25;42.30;;;24.52;;
55497;SDS011;41357;52.806;18.268;2022-10-16T03:14:52;38.30;;;22.27;;
55497;SDS011;41357;52.806;18.268;2022-10-16T03:17:18;42.28;;;23.75;;
55497;SDS011;41357;52.806;18.268;2022-10-16T03:19:44;41.13;;;22.77;;
55497;SDS011;41357;52.806;18.268;2022-10-16T03:22:10;35.83;;;21.58;;
55497;SDS011;41357;52.806;18.268;2022-10-16T03:24:36;37.03;;;20.08;;
55497;SDS011;41357;52.806;18.268;2022-10-16T03:27:02;32.70;;;19.98;;
55497;SDS011;41357;52.806;18.268;2022-10-16T03:29:29;34.63;;;20.15;;
55497;SDS011;41357;52.806;18.268;2022-10-16T03:31:55;44.85;;;23.42;;
55497;SDS011;41357;52.806;18.268;2022-10-16T03:34:22;37.10;;;19.95;;
55497;SDS011;41357;52.806;18.268;2022-10-16T03:36:48;38.13;;;21.35;;
55497;SDS011;41357;52.806;18.268;2022-10-16T03:39:14;37.25;;;20.13;;
55497;SDS011;41357;52.806;18.268;2022-10-16T03:41:40;36.60;;;21.80;;
55497;SDS011;41357;52.806;18.268;2022-10-16T03:44:06;35.55;;;19.58;;
55497;SDS011;41357;52.806;18.268;2022-10-16T03:46:33;37.17;;;20.70;;
55497;SDS011;41357;52.806;18.268;2022-10-16T03:48:59;30.92;;;18.30;;
55497;SDS011;41357;52.806;18.268;2022-10-16T03:51:25;31.35;;;17.50;;
55497;SDS011;41357;52.806;18.268;2022-10-16T03:53:51;27.25;;;16.15;;
55497;SDS011;41357;52.806;18.268;2022-10-16T03:56:18;33.28;;;19.60;;
55497;SDS011;41357;52.806;18.268;2022-10-16T03:58:44;29.15;;;17.55;;
55497;SDS011;41357;52.806;18.268;2022-10-16T04:01:10;32.10;;;18.55;;
55497;SDS011;41357;52.806;18.268;2022-10-16T04:03:36;26.83;;;16.02;;
55497;SDS011;41357;52.806;18.268;2022-10-16T04:06:02;28.20;;;16.48;;
55497;SDS011;41357;52.806;18.268;2022-10-16T04:08:28;26.35;;;15.43;;
55497;SDS011;41357;52.806;18.268;2022-10-16T04:10:55;25.52;;;15.38;;
55497;SDS011;41357;52.806;18.268;2022-10-16T04:13:21;24.73;;;14.55;;
55497;SDS011;41357;52.806;18.268;2022-10-16T04:15:47;27.25;;;15.20;;
55497;SDS011;41357;52.806;18.268;2022-10-16T04:18:13;27.50;;;15.07;;
55497;SDS011;41357;52.806;18.268;2022-10-16T04:20:40;30.95;;;16.13;;
55497;SDS011;41357;52.806;18.268;2022-10-16T04:23:06;26.02;;;15.13;;
55497;SDS011;41357;52.806;18.268;2022-10-16T04:25:32;26.67;;;14.10;;
55497;SDS011;41357;52.806;18.268;2022-10-16T04:27:58;26.10;;;14.18;;
55497;SDS011;41357;52.806;18.268;2022-10-16T04:30:25;23.17;;;13.13;;
55497;SDS011;41357;52.806;18.268;2022-10-16T04:32:51;22.55;;;13.93;;
55497;SDS011;41357;52.806;18.268;2022-10-16T04:35:18;25.60;;;16.08;;
55497;SDS011;41357;52.806;18.268;2022-10-16T04:37:44;28.75;;;17.52;;
55497;SDS011;41357;52.806;18.268;2022-10-16T04:40:10;26.38;;;18.08;;
55497;SDS011;41357;52.806;18.268;2022-10-16T04:42:37;27.45;;;17.27;;
55497;SDS011;41357;52.806;18.268;2022-10-16T04:45:04;24.60;;;15.30;;
55497;SDS011;41357;52.806;18.268;2022-10-16T04:47:30;24.25;;;15.02;;
55497;SDS011;41357;52.806;18.268;2022-10-16T04:49:56;22.13;;;14.52;;
55497;SDS011;41357;52.806;18.268;2022-10-16T04:52:24;24.95;;;14.18;;
55497;SDS011;41357;52.806;18.268;2022-10-16T04:54:51;22.73;;;12.57;;
55497;SDS011;41357;52.806;18.268;2022-10-16T04:57:17;22.63;;;13.32;;
55497;SDS011;41357;52.806;18.268;2022-10-16T04:59:43;21.35;;;12.80;;
55497;SDS011;41357;52.806;18.268;2022-10-16T05:02:09;17.27;;;10.93;;
55497;SDS011;41357;52.806;18.268;2022-10-16T05:04:36;19.13;;;11.48;;
55497;SDS011;41357;52.806;18.268;2022-10-16T05:07:02;22.85;;;12.13;;
55497;SDS011;41357;52.806;18.268;2022-10-16T05:09:28;21.60;;;11.05;;
55497;SDS011;41357;52.806;18.268;2022-10-16T05:11:54;20.83;;;11.25;;
55497;SDS011;41357;52.806;18.268;2022-10-16T05:14:20;18.00;;;11.05;;
55497;SDS011;41357;52.806;18.268;2022-10-16T05:16:46;18.05;;;11.32;;
55497;SDS011;41357;52.806;18.268;2022-10-16T05:19:13;16.20;;;9.82;;
55497;SDS011;41357;52.806;18.268;2022-10-16T05:21:39;17.67;;;10.90;;
55497;SDS011;41357;52.806;18.268;2022-10-16T05:24:05;18.98;;;11.10;;
55497;SDS011;41357;52.806;18.268;2022-10-16T05:26:31;20.42;;;11.05;;
55497;SDS011;41357;52.806;18.268;2022-10-16T05:28:58;17.17;;;10.88;;
55497;SDS011;41357;52.806;18.268;2022-10-16T05:31:24;15.32;;;10.40;;
55497;SDS011;41357;52.806;18.268;2022-10-16T05:33:50;21.95;;;11.35;;
55497;SDS011;41357;52.806;18.268;2022-10-16T05:36:16;18.77;;;10.35;;
55497;SDS011;41357;52.806;18.268;2022-10-16T05:38:43;19.73;;;9.48;;
55497;SDS011;41357;52.806;18.268;2022-10-16T05:41:09;20.95;;;10.07;;
55497;SDS011;41357;52.806;18.268;2022-10-16T05:43:35;18.02;;;10.48;;
55497;SDS011;41357;52.806;18.268;2022-10-16T05:46:05;19.02;;;10.93;;
55497;SDS011;41357;52.806;18.268;2022-10-16T05:48:31;19.33;;;10.45;;
55497;SDS011;41357;52.806;18.268;2022-10-16T05:50:59;19.73;;;10.73;;
55497;SDS011;41357;52.806;18.268;2022-10-16T05:53:26;18.23;;;11.05;;
55497;SDS011;41357;52.806;18.268;2022-10-16T05:55:53;15.98;;;9.40;;
55497;SDS011;41357;52.806;18.268;2022-10-16T05:58:19;18.35;;;9.52;;
55497;SDS011;41357;52.806;18.268;2022-10-16T06:00:52;17.42;;;10.60;;
55497;SDS011;41357;52.806;18.268;2022-10-16T06:03:18;20.88;;;11.32;;
55497;SDS011;41357;52.806;18.268;2022-10-16T06:05:44;22.98;;;11.23;;
55497;SDS011;41357;52.806;18.268;2022-10-16T06:08:10;19.65;;;11.50;;
55497;SDS011;41357;52.806;18.268;2022-10-16T06:10:36;28.77;;;15.68;;
55497;SDS011;41357;52.806;18.268;2022-10-16T06:13:02;35.05;;;19.23;;
55497;SDS011;41357;52.806;18.268;2022-10-16T06:15:29;23.15;;;12.52;;
55497;SDS011;41357;52.806;18.268;2022-10-16T06:17:55;24.48;;;13.55;;
55497;SDS011;41357;52.806;18.268;2022-10-16T06:20:21;21.65;;;12.80;;
55497;SDS011;41357;52.806;18.268;2022-10-16T06:22:47;25.50;;;13.85;;
55497;SDS011;41357;52.806;18.268;2022-10-16T06:25:13;20.63;;;12.70;;
55497;SDS011;41357;52.806;18.268;2022-10-16T06:27:40;23.15;;;13.07;;
55497;SDS011;41357;52.806;18.268;2022-10-16T06:30:06;22.33;;;11.50;;
55497;SDS011;41357;52.806;18.268;2022-10-16T06:32:32;21.98;;;11.32;;
55497;SDS011;41357;52.806;18.268;2022-10-16T06:34:59;17.48;;;11.68;;
55497;SDS011;41357;52.806;18.268;2022-10-16T06:37:25;18.20;;;12.63;;
55497;SDS011;41357;52.806;18.268;2022-10-16T06:39:52;26.00;;;12.27;;
55497;SDS011;41357;52.806;18.268;2022-10-16T06:42:18;24.65;;;12.30;;
55497;SDS011;41357;52.806;18.268;2022-10-16T06:44:44;21.88;;;12.93;;
55497;SDS011;41357;52.806;18.268;2022-10-16T06:47:11;20.50;;;11.23;;
55497;SDS011;41357;52.806;18.268;2022-10-16T06:49:37;14.20;;;8.38;;
55497;SDS011;41357;52.806;18.268;2022-10-16T06:52:03;21.65;;;10.40;;
55497;SDS011;41357;52.806;18.268;2022-10-16T06:54:29;18.38;;;9.80;;
55497;SDS011;41357;52.806;18.268;2022-10-16T06:56:56;14.73;;;8.85;;
55497;SDS011;41357;52.806;18.268;2022-10-16T06:59:22;16.17;;;8.98;;
55497;SDS011;41357;52.806;18.268;2022-10-16T07:01:48;15.70;;;8.77;;
55497;SDS011;41357;52.806;18.268;2022-10-16T07:04:14;15.75;;;9.35;;
55497;SDS011;41357;52.806;18.268;2022-10-16T07:06:40;15.63;;;9.02;;
55497;SDS011;41357;52.806;18.268;2022-10-16T07:09:08;13.13;;;8.52;;
55497;SDS011;41357;52.806;18.268;2022-10-16T07:11:36;22.00;;;11.43;;
55497;SDS011;41357;52.806;18.268;2022-10-16T07:14:03;19.60;;;9.90;;
55497;SDS011;41357;52.806;18.268;2022-10-16T07:16:30;19.15;;;10.55;;
55497;SDS011;41357;52.806;18.268;2022-10-16T07:18:57;18.48;;;9.50;;
55497;SDS011;41357;52.806;18.268;2022-10-16T07:21:24;16.65;;;9.70;;
55497;SDS011;41357;52.806;18.268;2022-10-16T07:23:54;15.45;;;9.48;;
55497;SDS011;41357;52.806;18.268;2022-10-16T07:26:21;13.77;;;8.90;;
55497;SDS011;41357;52.806;18.268;2022-10-16T07:28:47;15.90;;;8.07;;
55497;SDS011;41357;52.806;18.268;2022-10-16T07:31:14;18.75;;;10.15;;
55497;SDS011;41357;52.806;18.268;2022-10-16T07:33:40;20.25;;;8.95;;
55497;SDS011;41357;52.806;18.268;2022-10-16T07:36:09;14.93;;;8.73;;
55497;SDS011;41357;52.806;18.268;2022-10-16T07:38:35;16.25;;;8.90;;
55497;SDS011;41357;52.806;18.268;2022-10-16T07:41:03;17.17;;;12.18;;
55497;SDS011;41357;52.806;18.268;2022-10-16T07:43:30;13.10;;;9.57;;
55497;SDS011;41357;52.806;18.268;2022-10-16T07:45:56;12.18;;;8.73;;
55497;SDS011;41357;52.806;18.268;2022-10-16T07:48:23;12.50;;;8.60;;
55497;SDS011;41357;52.806;18.268;2022-10-16T07:50:49;12.40;;;8.80;;
55497;SDS011;41357;52.806;18.268;2022-10-16T07:53:15;13.07;;;8.48;;
55497;SDS011;41357;52.806;18.268;2022-10-16T07:55:42;13.32;;;8.73;;
55497;SDS011;41357;52.806;18.268;2022-10-16T07:58:08;12.40;;;8.82;;
55497;SDS011;41357;52.806;18.268;2022-10-16T08:00:35;12.50;;;8.48;;
55497;SDS011;41357;52.806;18.268;2022-10-16T08:03:02;12.40;;;8.90;;
55497;SDS011;41357;52.806;18.268;2022-10-16T08:05:29;13.20;;;7.63;;
55497;SDS011;41357;52.806;18.268;2022-10-16T08:07:55;14.00;;;7.35;;
55497;SDS011;41357;52.806;18.268;2022-10-16T08:10:22;11.75;;;7.78;;
55497;SDS011;41357;52.806;18.268;2022-10-16T08:12:49;12.70;;;7.40;;
55497;SDS011;41357;52.806;18.268;2022-10-16T08:15:16;11.40;;;7.88;;
55497;SDS011;41357;52.806;18.268;2022-10-16T08:17:42;13.52;;;7.05;;
55497;SDS011;41357;52.806;18.268;2022-10-16T08:20:08;13.63;;;8.02;;
55497;SDS011;41357;52.806;18.268;2022-10-16T08:22:35;13.40;;;7.63;;
55497;SDS011;41357;52.806;18.268;2022-10-16T08:25:01;16.42;;;9.73;;
55497;SDS011;41357;52.806;18.268;2022-10-16T08:27:31;18.17;;;10.90;;
55497;SDS011;41357;52.806;18.268;2022-10-16T08:29:57;21.57;;;12.57;;
55497;SDS011;41357;52.806;18.268;2022-10-16T08:32:23;21.30;;;13.25;;
55497;SDS011;41357;52.806;18.268;2022-10-16T08:34:49;15.70;;;9.88;;
55497;SDS011;41357;52.806;18.268;2022-10-16T08:37:15;16.20;;;10.63;;
55497;SDS011;41357;52.806;18.268;2022-10-16T08:39:41;13.73;;;9.48;;
55497;SDS011;41357;52.806;18.268;2022-10-16T08:44:43;17.83;;;11.23;;
55497;SDS011;41357;52.806;18.268;2022-10-16T08:49:41;23.80;;;15.10;;
55497;SDS011;41357;52.806;18.268;2022-10-16T08:52:11;18.00;;;12.27;;
55497;SDS011;41357;52.806;18.268;2022-10-16T08:57:20;13.30;;;7.75;;
55497;SDS011;41357;52.806;18.268;2022-10-16T08:59:46;14.68;;;10.52;;
55497;SDS011;41357;52.806;18.268;2022-10-16T09:10:24;7.60;;;5.55;;
55497;SDS011;41357;52.806;18.268;2022-10-16T09:18:12;7.15;;;5.30;;
55497;SDS011;41357;52.806;18.268;2022-10-16T09:23:26;9.25;;;5.03;;
55497;SDS011;41357;52.806;18.268;2022-10-16T09:25:53;7.60;;;4.60;;
55497;SDS011;41357;52.806;18.268;2022-10-16T09:28:20;7.60;;;5.38;;
55497;SDS011;41357;52.806;18.268;2022-10-16T09:30:46;7.00;;;4.85;;
55497;SDS011;41357;52.806;18.268;2022-10-16T09:33:17;9.15;;;5.50;;
55497;SDS011;41357;52.806;18.268;2022-10-16T09:35:48;7.75;;;5.50;;
55497;SDS011;41357;52.806;18.268;2022-10-16T09:38:22;6.88;;;4.75;;
55497;SDS011;41357;52.806;18.268;2022-10-16T09:40:49;8.20;;;5.18;;
55497;SDS011;41357;52.806;18.268;2022-10-16T09:46:45;6.93;;;5.40;;
55497;SDS011;41357;52.806;18.268;2022-10-16T09:48:43;9.13;;;6.20;;
55497;SDS011;41357;52.806;18.268;2022-10-16T09:53:55;13.45;;;9.65;;
55497;SDS011;41357;52.806;18.268;2022-10-16T09:56:23;9.63;;;6.68;;
55497;SDS011;41357;52.806;18.268;2022-10-16T09:58:51;10.13;;;6.43;;
55497;SDS011;41357;52.806;18.268;2022-10-16T10:01:17;7.45;;;5.65;;
55497;SDS011;41357;52.806;18.268;2022-10-16T10:03:44;9.15;;;5.35;;
55497;SDS011;41357;52.806;18.268;2022-10-16T10:08:58;6.93;;;4.97;;
55497;SDS011;41357;52.806;18.268;2022-10-16T10:11:38;5.38;;;4.15;;
55497;SDS011;41357;52.806;18.268;2022-10-16T10:16:49;6.88;;;4.90;;
55497;SDS011;41357;52.806;18.268;2022-10-16T10:19:16;9.65;;;5.07;;
55497;SDS011;41357;52.806;18.268;2022-10-16T10:21:43;7.22;;;5.00;;
55497;SDS011;41357;52.806;18.268;2022-10-16T10:24:12;7.10;;;4.70;;
55497;SDS011;41357;52.806;18.268;2022-10-16T10:26:41;6.53;;;4.88;;
55497;SDS011;41357;52.806;18.268;2022-10-16T10:31:48;8.40;;;5.22;;
55497;SDS011;41357;52.806;18.268;2022-10-16T10:37:03;6.18;;;4.75;;
55497;SDS011;41357;52.806;18.268;2022-10-16T10:39:41;8.10;;;5.78;;
55497;SDS011;41357;52.806;18.268;2022-10-16T10:42:18;8.32;;;5.53;;
55497;SDS011;41357;52.806;18.268;2022-10-16T10:44:55;7.50;;;5.00;;
55497;SDS011;41357;52.806;18.268;2022-10-16T10:52:59;8.13;;;6.10;;
55497;SDS011;41357;52.806;18.268;2022-10-16T10:55:24;8.40;;;6.25;;
55497;SDS011;41357;52.806;18.268;2022-10-16T11:00:51;8.27;;;5.70;;
55497;SDS011;41357;52.806;18.268;2022-10-16T11:03:55;8.45;;;5.75;;
55497;SDS011;41357;52.806;18.268;2022-10-16T11:06:17;8.60;;;5.38;;
55497;SDS011;41357;52.806;18.268;2022-10-16T11:08:48;8.27;;;5.03;;
55497;SDS011;41357;52.806;18.268;2022-10-16T11:11:20;7.63;;;5.28;;
55497;SDS011;41357;52.806;18.268;2022-10-16T11:16:16;7.63;;;4.65;;
55497;SDS011;41357;52.806;18.268;2022-10-16T11:21:10;6.75;;;4.70;;
55497;SDS011;41357;52.806;18.268;2022-10-16T11:26:04;6.15;;;4.72;;
55497;SDS011;41357;52.806;18.268;2022-10-16T11:31:43;6.82;;;5.10;;
55497;SDS011;41357;52.806;18.268;2022-10-16T11:47:08;8.40;;;4.93;;
55497;SDS011;41357;52.806;18.268;2022-10-16T11:49:36;5.93;;;5.28;;
55497;SDS011;41357;52.806;18.268;2022-10-16T11:56:57;6.85;;;4.85;;
55497;SDS011;41357;52.806;18.268;2022-10-16T11:59:46;6.03;;;4.65;;
55497;SDS011;41357;52.806;18.268;2022-10-16T12:05:04;8.55;;;4.70;;
55497;SDS011;41357;52.806;18.268;2022-10-16T12:07:32;5.30;;;4.38;;
55497;SDS011;41357;52.806;18.268;2022-10-16T12:10:09;4.70;;;4.13;;
55497;SDS011;41357;52.806;18.268;2022-10-16T12:15:24;6.75;;;4.00;;
55497;SDS011;41357;52.806;18.268;2022-10-16T12:17:48;5.82;;;4.55;;
55497;SDS011;41357;52.806;18.268;2022-10-16T12:20:19;5.18;;;3.97;;
55497;SDS011;41357;52.806;18.268;2022-10-16T12:22:49;4.88;;;3.78;;
55497;SDS011;41357;52.806;18.268;2022-10-16T12:25:26;7.03;;;4.40;;
55497;SDS011;41357;52.806;18.268;2022-10-16T12:28:03;5.00;;;4.15;;
55497;SDS011;41357;52.806;18.268;2022-10-16T12:30:31;7.40;;;5.03;;
55497;SDS011;41357;52.806;18.268;2022-10-16T12:33:19;7.90;;;5.05;;
55497;SDS011;41357;52.806;18.268;2022-10-16T12:35:46;8.13;;;5.65;;
55497;SDS011;41357;52.806;18.268;2022-10-16T12:38:15;7.40;;;4.28;;
55497;SDS011;41357;52.806;18.268;2022-10-16T12:40:41;6.70;;;4.32;;
55497;SDS011;41357;52.806;18.268;2022-10-16T12:48:46;4.88;;;3.58;;
55497;SDS011;41357;52.806;18.268;2022-10-16T12:59:05;6.25;;;4.07;;
55497;SDS011;41357;52.806;18.268;2022-10-16T13:09:40;6.43;;;4.53;;
55497;SDS011;41357;52.806;18.268;2022-10-16T13:28:10;5.30;;;3.85;;
55497;SDS011;41357;52.806;18.268;2022-10-16T13:30:38;7.13;;;3.30;;
55497;SDS011;41357;52.806;18.268;2022-10-16T13:33:10;7.55;;;3.47;;
55497;SDS011;41357;52.806;18.268;2022-10-16T13:35:46;10.55;;;5.03;;
55497;SDS011;41357;52.806;18.268;2022-10-16T13:38:14;16.33;;;5.97;;
55497;SDS011;41357;52.806;18.268;2022-10-16T13:43:19;5.85;;;3.85;;
55497;SDS011;41357;52.806;18.268;2022-10-16T13:45:57;15.48;;;6.07;;
55497;SDS011;41357;52.806;18.268;2022-10-16T13:48:23;8.90;;;4.75;;
55497;SDS011;41357;52.806;18.268;2022-10-16T13:51:00;7.28;;;4.45;;
55497;SDS011;41357;52.806;18.268;2022-10-16T13:53:26;5.68;;;4.03;;
55497;SDS011;41357;52.806;18.268;2022-10-16T13:55:52;9.52;;;5.00;;
55497;SDS011;41357;52.806;18.268;2022-10-16T13:58:19;9.02;;;5.40;;
55497;SDS011;41357;52.806;18.268;2022-10-16T14:00:58;9.40;;;5.82;;
55497;SDS011;41357;52.806;18.268;2022-10-16T14:03:25;9.65;;;5.75;;
55497;SDS011;41357;52.806;18.268;2022-10-16T14:05:52;9.52;;;5.40;;
55497;SDS011;41357;52.806;18.268;2022-10-16T14:08:19;8.18;;;5.40;;
55497;SDS011;41357;52.806;18.268;2022-10-16T14:10:53;8.23;;;5.10;;
55497;SDS011;41357;52.806;18.268;2022-10-16T14:13:22;6.15;;;4.43;;
55497;SDS011;41357;52.806;18.268;2022-10-16T14:15:50;4.07;;;3.65;;
55497;SDS011;41357;52.806;18.268;2022-10-16T14:18:21;8.35;;;5.75;;
55497;SDS011;41357;52.806;18.268;2022-10-16T14:20:48;7.05;;;4.38;;
55497;SDS011;41357;52.806;18.268;2022-10-16T14:25:44;9.30;;;6.95;;
55497;SDS011;41357;52.806;18.268;2022-10-16T14:36:19;5.57;;;4.07;;
55497;SDS011;41357;52.806;18.268;2022-10-16T14:41:30;9.93;;;5.70;;
55497;SDS011;41357;52.806;18.268;2022-10-16T14:44:00;9.27;;;6.25;;
55497;SDS011;41357;52.806;18.268;2022-10-16T14:46:34;10.23;;;6.30;;
55497;SDS011;41357;52.806;18.268;2022-10-16T14:49:17;9.38;;;6.03;;
55497;SDS011;41357;52.806;18.268;2022-10-16T14:51:45;8.02;;;5.65;;
55497;SDS011;41357;52.806;18.268;2022-10-16T14:54:11;10.73;;;6.53;;
55497;SDS011;41357;52.806;18.268;2022-10-16T14:56:51;8.23;;;5.57;;
55497;SDS011;41357;52.806;18.268;2022-10-16T14:59:39;11.30;;;6.57;;
55497;SDS011;41357;52.806;18.268;2022-10-16T15:04:49;9.40;;;5.93;;
55497;SDS011;41357;52.806;18.268;2022-10-16T15:07:15;9.98;;;6.82;;
55497;SDS011;41357;52.806;18.268;2022-10-16T15:09:41;10.50;;;8.48;;
55497;SDS011;41357;52.806;18.268;2022-10-16T15:12:07;13.02;;;9.65;;
55497;SDS011;41357;52.806;18.268;2022-10-16T15:14:34;15.77;;;11.70;;
55497;SDS011;41357;52.806;18.268;2022-10-16T15:17:00;15.27;;;11.23;;
55497;SDS011;41357;52.806;18.268;2022-10-16T15:19:26;16.38;;;11.57;;
55497;SDS011;41357;52.806;18.268;2022-10-16T15:21:52;10.80;;;8.93;;
55497;SDS011;41357;52.806;18.268;2022-10-16T15:24:18;11.77;;;7.70;;
55497;SDS011;41357;52.806;18.268;2022-10-16T15:26:45;9.20;;;6.10;;
55497;SDS011;41357;52.806;18.268;2022-10-16T15:29:11;7.32;;;5.57;;
55497;SDS011;41357;52.806;18.268;2022-10-16T15:31:37;8.93;;;5.85;;
55497;SDS011;41357;52.806;18.268;2022-10-16T15:34:08;8.27;;;4.97;;
55497;SDS011;41357;52.806;18.268;2022-10-16T15:36:35;8.95;;;5.32;;
55497;SDS011;41357;52.806;18.268;2022-10-16T15:39:22;9.88;;;5.28;;
55497;SDS011;41357;52.806;18.268;2022-10-16T15:41:48;9.02;;;4.88;;
55497;SDS011;41357;52.806;18.268;2022-10-16T15:44:19;7.63;;;5.10;;
55497;SDS011;41357;52.806;18.268;2022-10-16T15:46:46;10.02;;;5.95;;
55497;SDS011;41357;52.806;18.268;2022-10-16T15:49:12;8.63;;;5.65;;
55497;SDS011;41357;52.806;18.268;2022-10-16T15:51:39;17.88;;;11.73;;
55497;SDS011;41357;52.806;18.268;2022-10-16T15:54:05;15.95;;;7.90;;
55497;SDS011;41357;52.806;18.268;2022-10-16T15:56:31;18.80;;;8.35;;
55497;SDS011;41357;52.806;18.268;2022-10-16T15:59:01;19.65;;;9.30;;
55497;SDS011;41357;52.806;18.268;2022-10-16T16:01:27;23.42;;;8.43;;
55497;SDS011;41357;52.806;18.268;2022-10-16T16:03:54;16.70;;;7.53;;
55497;SDS011;41357;52.806;18.268;2022-10-16T16:06:21;19.98;;;8.07;;
55497;SDS011;41357;52.806;18.268;2022-10-16T16:08:49;25.63;;;9.38;;
55497;SDS011;41357;52.806;18.268;2022-10-16T16:11:15;23.67;;;8.40;;
55497;SDS011;41357;52.806;18.268;2022-10-16T16:13:42;24.67;;;8.38;;
55497;SDS011;41357;52.806;18.268;2022-10-16T16:16:09;21.23;;;8.98;;
55497;SDS011;41357;52.806;18.268;2022-10-16T16:18:36;16.58;;;7.80;;
55497;SDS011;41357;52.806;18.268;2022-10-16T16:21:03;14.57;;;6.80;;
55497;SDS011;41357;52.806;18.268;2022-10-16T16:23:29;17.85;;;6.78;;
55497;SDS011;41357;52.806;18.268;2022-10-16T16:26:03;16.77;;;7.45;;
55497;SDS011;41357;52.806;18.268;2022-10-16T16:28:29;16.75;;;8.82;;
55497;SDS011;41357;52.806;18.268;2022-10-16T16:30:55;22.08;;;12.60;;
55497;SDS011;41357;52.806;18.268;2022-10-16T16:33:21;21.08;;;10.27;;
55497;SDS011;41357;52.806;18.268;2022-10-16T16:35:48;37.03;;;19.33;;
55497;SDS011;41357;52.806;18.268;2022-10-16T16:38:14;54.90;;;28.70;;
55497;SDS011;41357;52.806;18.268;2022-10-16T16:40:40;31.88;;;16.88;;
55497;SDS011;41357;52.806;18.268;2022-10-16T16:43:06;21.75;;;11.48;;
55497;SDS011;41357;52.806;18.268;2022-10-16T16:45:35;27.40;;;12.98;;
55497;SDS011;41357;52.806;18.268;2022-10-16T16:48:01;26.40;;;11.75;;
55497;SDS011;41357;52.806;18.268;2022-10-16T16:50:27;27.98;;;10.43;;
55497;SDS011;41357;52.806;18.268;2022-10-16T16:52:54;29.45;;;10.98;;
55497;SDS011;41357;52.806;18.268;2022-10-16T16:55:20;22.42;;;10.35;;
55497;SDS011;41357;52.806;18.268;2022-10-16T16:57:48;17.45;;;8.80;;